Terminal Aerodrome Forecast
Issued by NWS

Home | Current Version | Previous Version | Text Only | Print | Product List | Glossary On
Versions: 1 2 3 4 5 6 7 8 9 10 11 12 13 14 15 16 17 18 19 20
000
FTUS43 KGLD 300523
TAFMCK
TAF
KMCK 300523Z 3006/0106 36020G30KT 5SM -RASN BR OVC025
     FM300900 35030G40KT 3SM -SN BLSN OVC010
     FM302100 34025G35KT 4SM -SN OVC015
     FM010100 34015G25KT 5SM -SN BKN025=

USA.gov is the U.S. government's official web portal to all federal, state and local government web resources and services.